createdAt,value
2023-02-11T00:02:29.567Z,5.07
2023-02-11T00:05:12.306Z,3.88
2023-02-11T00:07:41.522Z,4.88
2023-02-11T00:10:10.193Z,3.30
2023-02-11T00:12:39.132Z,4.55
2023-02-11T00:15:08.713Z,4.97
2023-02-11T00:17:36.707Z,4.93
2023-02-11T00:20:07.849Z,5.38
2023-02-11T00:22:35.980Z,3.70
2023-02-11T00:25:05.385Z,4.47
2023-02-11T00:27:33.219Z,5.13
2023-02-11T00:30:02.236Z,3.60
2023-02-11T00:32:30.310Z,4.57
2023-02-11T00:34:58.119Z,5.47
2023-02-11T00:37:25.972Z,4.72
2023-02-11T00:40:16.048Z,4.10
2023-02-11T00:42:48.836Z,4.88
2023-02-11T00:45:16.838Z,4.43
2023-02-11T00:47:44.618Z,4.32
2023-02-11T00:50:12.424Z,5.18
2023-02-11T00:52:40.245Z,6.07
2023-02-11T00:55:08.959Z,5.18
2023-02-11T00:57:38.314Z,3.92
2023-02-11T01:00:07.695Z,5.22
2023-02-11T01:02:35.670Z,4.15
2023-02-11T01:05:03.651Z,4.22
2023-02-11T01:07:31.535Z,3.30
2023-02-11T01:09:59.592Z,3.80
2023-02-11T01:12:27.453Z,4.88
2023-02-11T01:14:56.631Z,3.80
2023-02-11T01:17:24.402Z,5.28
2023-02-11T01:19:52.196Z,3.55
2023-02-11T01:22:20.144Z,3.83
2023-02-11T01:24:48.168Z,3.10
2023-02-11T01:27:15.975Z,4.22
2023-02-11T01:29:43.773Z,2.92
2023-02-11T01:32:12.931Z,4.25
2023-02-11T01:34:40.776Z,4.25
2023-02-11T01:37:08.682Z,6.22
2023-02-11T01:39:36.869Z,3.83
2023-02-11T01:42:05.152Z,4.32
2023-02-11T01:44:35.067Z,5.00
2023-02-11T01:47:04.743Z,5.30
2023-02-11T01:49:58.430Z,4.68
2023-02-11T01:52:28.526Z,4.63
2023-02-11T01:55:18.351Z,3.65
2023-02-11T01:57:49.590Z,3.95
2023-02-11T02:00:24.261Z,4.30
2023-02-11T02:02:57.574Z,3.72
2023-02-11T02:05:34.329Z,4.80
2023-02-11T02:08:07.741Z,4.93
2023-02-11T02:10:37.578Z,5.10
2023-02-11T02:13:05.448Z,4.10
2023-02-11T02:15:34.781Z,4.53
2023-02-11T02:18:33.122Z,5.32
2023-02-11T02:21:43.804Z,4.15
2023-02-11T02:24:38.195Z,4.15
2023-02-11T02:27:30.448Z,5.78
2023-02-11T02:30:21.307Z,5.10
2023-02-11T02:33:23.606Z,5.22
2023-02-11T02:36:01.219Z,4.90
2023-02-11T02:38:33.997Z,5.75
2023-02-11T02:41:07.308Z,3.85
2023-02-11T02:43:37.600Z,4.32
2023-02-11T02:46:14.044Z,4.60
2023-02-11T02:48:43.250Z,4.65
2023-02-11T02:51:25.118Z,4.45
2023-02-11T02:54:07.413Z,4.05
2023-02-11T02:56:45.380Z,5.05
2023-02-11T02:59:36.453Z,4.60
2023-02-11T03:02:13.405Z,5.15
2023-02-11T03:04:52.621Z,4.10
2023-02-11T03:07:28.760Z,5.55
2023-02-11T03:10:00.725Z,4.47
2023-02-11T03:12:31.793Z,4.78
2023-02-11T03:15:02.350Z,5.60
2023-02-11T03:17:33.216Z,5.10
2023-02-11T03:20:04.274Z,5.53
2023-02-11T03:22:38.173Z,4.28
2023-02-11T03:25:06.672Z,4.70
2023-02-11T03:27:42.428Z,3.88
2023-02-11T03:30:16.129Z,4.85
2023-02-11T03:32:51.122Z,4.80
2023-02-11T03:35:23.910Z,3.83
2023-02-11T03:37:54.788Z,5.05
2023-02-11T03:40:25.867Z,4.10
2023-02-11T03:42:58.071Z,5.00
2023-02-11T03:45:28.364Z,3.90
2023-02-11T03:48:01.034Z,3.65
2023-02-11T03:50:33.001Z,5.32
2023-02-11T03:53:02.766Z,6.03
2023-02-11T03:55:33.953Z,4.75
2023-02-11T03:58:02.300Z,4.50
2023-02-11T04:00:35.055Z,5.85
2023-02-11T04:03:02.941Z,5.72
2023-02-11T04:05:32.689Z,5.97
2023-02-11T04:08:20.522Z,4.72
2023-02-11T04:10:48.295Z,6.90
2023-02-11T04:13:16.228Z,5.65
2023-02-11T04:15:44.087Z,6.00
2023-02-11T04:18:11.921Z,4.85
2023-02-11T04:20:41.065Z,5.93
2023-02-11T04:23:10.131Z,6.00
2023-02-11T04:25:37.947Z,5.28
2023-02-11T04:28:05.817Z,4.63
2023-02-11T04:30:33.652Z,4.70
2023-02-11T04:33:01.468Z,6.82
2023-02-11T04:35:29.315Z,6.50
2023-02-11T04:37:58.462Z,6.57
2023-02-11T04:40:26.251Z,5.32
2023-02-11T04:42:54.086Z,5.65
2023-02-11T04:45:22.147Z,4.35
2023-02-11T04:47:49.979Z,5.30
2023-02-11T04:50:18.478Z,3.75
2023-02-11T04:52:46.365Z,5.55
2023-02-11T04:55:15.639Z,5.25
2023-02-11T04:57:43.446Z,5.72
2023-02-11T05:00:12.480Z,5.75
2023-02-11T05:02:40.368Z,6.20
2023-02-11T05:05:08.613Z,6.40
2023-02-11T05:07:36.452Z,6.25
2023-02-11T05:10:04.791Z,6.25
2023-02-11T05:12:33.925Z,5.85
2023-02-11T05:15:01.774Z,5.53
2023-02-11T05:17:29.547Z,5.63
2023-02-11T05:19:57.372Z,4.63
2023-02-11T05:22:25.221Z,5.55
2023-02-11T05:24:53.027Z,4.57
2023-02-11T05:27:20.812Z,5.90
2023-02-11T05:29:50.017Z,5.35
2023-02-11T05:32:17.828Z,4.32
2023-02-11T05:34:45.869Z,6.68
2023-02-11T05:37:13.784Z,3.90
2023-02-11T05:39:41.665Z,4.65
2023-02-11T05:42:09.611Z,5.40
2023-02-11T05:44:37.584Z,6.20
2023-02-11T05:47:08.904Z,4.20
2023-02-11T05:49:36.941Z,5.13
2023-02-11T05:52:05.265Z,5.15
2023-02-11T05:54:33.123Z,4.40
2023-02-11T05:57:00.954Z,6.53
2023-02-11T05:59:28.832Z,5.18
2023-02-11T06:01:56.665Z,5.00
2023-02-11T06:04:25.828Z,4.55
2023-02-11T06:06:53.930Z,5.63
2023-02-11T06:09:21.796Z,4.78
2023-02-11T06:11:49.632Z,4.03
2023-02-11T06:14:17.842Z,3.72
2023-02-11T06:16:45.779Z,4.90
2023-02-11T06:19:14.095Z,4.18
2023-02-11T06:21:44.561Z,4.28
2023-02-11T06:24:12.577Z,4.03
2023-02-11T06:26:40.397Z,6.03
2023-02-11T06:29:08.379Z,4.75
2023-02-11T06:31:38.200Z,4.75
2023-02-11T06:34:06.220Z,5.18
2023-02-11T06:36:34.152Z,4.13
2023-02-11T06:39:03.462Z,4.30
2023-02-11T06:41:31.270Z,4.32
2023-02-11T06:43:59.097Z,4.18
2023-02-11T06:46:26.941Z,4.30
2023-02-11T06:48:54.720Z,5.88
2023-02-11T06:51:22.533Z,4.78
2023-02-11T06:53:50.619Z,6.03
2023-02-11T06:56:21.810Z,6.50
2023-02-11T06:58:53.322Z,5.10
2023-02-11T07:01:21.308Z,5.70
2023-02-11T07:03:49.190Z,5.90
2023-02-11T07:06:19.799Z,5.40
2023-02-11T07:08:48.256Z,6.07
2023-02-11T07:11:17.888Z,6.35
2023-02-11T07:13:47.826Z,5.55
2023-02-11T07:16:18.265Z,5.80
2023-02-11T07:18:47.689Z,5.45
2023-02-11T07:21:17.828Z,5.25
2023-02-11T07:23:45.665Z,6.70
2023-02-11T07:26:16.946Z,6.28
2023-02-11T07:28:46.895Z,5.47
2023-02-11T07:31:16.856Z,5.43
2023-02-11T07:33:45.820Z,6.70
2023-02-11T07:36:15.736Z,7.13
2023-02-11T07:38:44.428Z,5.38
2023-02-11T07:41:14.997Z,5.60
2023-02-11T07:43:43.711Z,5.65
2023-02-11T07:46:15.651Z,6.45
2023-02-11T07:48:43.508Z,4.97
2023-02-11T07:51:13.404Z,6.25
2023-02-11T07:53:41.778Z,5.38
2023-02-11T07:56:11.357Z,4.93
2023-02-11T07:58:39.295Z,7.07
2023-02-11T08:01:09.407Z,5.50
2023-02-11T08:03:39.181Z,5.45
2023-02-11T08:06:09.152Z,5.80
2023-02-11T08:08:37.289Z,6.65
2023-02-11T08:11:08.270Z,5.10
2023-02-11T08:13:36.775Z,5.57
2023-02-11T08:16:05.875Z,5.70
2023-02-11T08:18:34.604Z,5.05
2023-02-11T08:21:07.831Z,5.90
2023-02-11T08:23:37.994Z,6.55
2023-02-11T08:26:08.169Z,6.20
2023-02-11T08:28:37.450Z,4.80
2023-02-11T08:31:07.775Z,6.07
2023-02-11T08:33:35.948Z,5.57
2023-02-11T08:36:11.202Z,5.20
2023-02-11T08:38:39.262Z,5.30
2023-02-11T08:41:07.833Z,5.90
2023-02-11T08:43:36.208Z,5.22
2023-02-11T08:46:04.517Z,5.55
2023-02-11T08:48:32.544Z,6.30
2023-02-11T08:51:00.606Z,4.25
2023-02-11T08:53:29.776Z,5.13
2023-02-11T08:55:57.720Z,5.35
2023-02-11T08:58:25.534Z,5.70
2023-02-11T09:00:53.861Z,6.00
2023-02-11T09:03:22.060Z,6.43
2023-02-11T09:05:53.058Z,5.45
2023-02-11T09:08:21.583Z,5.03
2023-02-11T09:10:51.050Z,4.80
2023-02-11T09:13:19.014Z,5.97
2023-02-11T09:15:47.417Z,5.97
2023-02-11T09:18:15.378Z,6.50
2023-02-11T09:20:43.256Z,5.35
2023-02-11T09:23:12.582Z,6.90
2023-02-11T09:25:41.275Z,5.55
2023-02-11T09:28:11.464Z,6.47
2023-02-11T09:30:40.127Z,5.20
2023-02-11T09:33:08.056Z,6.40
2023-02-11T09:35:35.889Z,5.47
2023-02-11T09:38:03.782Z,5.40
2023-02-11T09:40:31.798Z,5.32
2023-02-11T09:43:08.883Z,5.20
2023-02-11T09:45:38.455Z,6.15
2023-02-11T09:48:14.105Z,5.85
2023-02-11T09:50:44.444Z,4.10
2023-02-11T09:53:18.835Z,2.83
2023-02-11T09:55:50.678Z,4.22
2023-02-11T09:58:23.702Z,4.03
2023-02-11T10:01:02.891Z,4.75
2023-02-11T10:03:58.558Z,4.15
2023-02-11T10:06:39.692Z,3.75
2023-02-11T10:09:23.126Z,4.43
2023-02-11T10:12:00.113Z,4.68
2023-02-11T10:14:49.960Z,4.72
2023-02-11T10:17:28.662Z,2.97
2023-02-11T10:20:17.150Z,4.80
2023-02-11T10:22:49.682Z,4.53
2023-02-11T10:25:23.393Z,4.82
2023-02-11T10:27:52.809Z,4.43
2023-02-11T10:30:27.137Z,3.88
2023-02-11T10:33:03.488Z,3.33
2023-02-11T10:35:32.572Z,4.25
2023-02-11T10:38:01.133Z,3.35
2023-02-11T10:40:31.627Z,4.20
2023-02-11T10:43:03.745Z,4.07
2023-02-11T10:45:34.524Z,2.58
2023-02-11T10:48:07.036Z,4.30
2023-02-11T10:50:36.921Z,4.32
2023-02-11T10:53:17.173Z,3.45
2023-02-11T10:55:52.072Z,2.83
2023-02-11T10:58:26.686Z,4.35
2023-02-11T11:00:56.892Z,3.50
2023-02-11T11:03:28.548Z,2.58
2023-02-11T11:05:59.676Z,3.97
2023-02-11T11:08:41.118Z,3.08
2023-02-11T11:11:11.252Z,4.57
2023-02-11T11:13:40.027Z,3.85
2023-02-11T11:16:16.200Z,4.00
2023-02-11T11:18:47.380Z,3.03
2023-02-11T11:21:19.115Z,1.90
2023-02-11T11:23:53.746Z,3.13
2023-02-11T11:26:22.606Z,2.65
2023-02-11T11:29:00.852Z,3.50
2023-02-11T11:31:32.626Z,3.95
2023-02-11T11:34:04.511Z,4.00
2023-02-11T11:36:36.287Z,2.67
2023-02-11T11:39:18.401Z,1.85
2023-02-11T11:41:58.382Z,4.38
2023-02-11T11:44:29.910Z,3.50
2023-02-11T11:47:19.477Z,2.47
2023-02-11T11:49:52.541Z,2.80
2023-02-11T11:52:33.779Z,3.88
2023-02-11T11:55:08.718Z,2.63
2023-02-11T11:57:39.475Z,1.70
2023-02-11T12:00:16.314Z,3.22
2023-02-11T12:03:05.529Z,1.25
2023-02-11T12:05:43.407Z,1.67
2023-02-11T12:08:19.985Z,1.80
2023-02-11T12:10:59.586Z,2.83
2023-02-11T12:13:42.014Z,1.63
2023-02-11T12:16:20.710Z,0.90
2023-02-11T12:19:11.248Z,1.80
2023-02-11T12:21:50.813Z,2.55
2023-02-11T12:24:33.825Z,1.98
2023-02-11T12:27:06.672Z,2.30
2023-02-11T12:29:44.395Z,3.75
2023-02-11T12:32:21.173Z,1.70
2023-02-11T12:35:21.816Z,1.35
2023-02-11T12:38:30.419Z,1.45
2023-02-11T12:41:13.704Z,1.35
2023-02-11T12:43:42.609Z,1.45
2023-02-11T12:46:35.144Z,1.60
2023-02-11T12:49:24.773Z,1.48
2023-02-11T12:52:21.912Z,1.63
2023-02-11T12:54:59.079Z,1.20
2023-02-11T12:57:28.670Z,1.92
2023-02-11T13:00:01.372Z,2.60
2023-02-11T13:02:40.223Z,1.20
2023-02-11T13:05:23.462Z,1.80
2023-02-11T13:07:54.673Z,0.82
2023-02-11T13:10:35.495Z,1.65
2023-02-11T13:13:18.413Z,1.98
2023-02-11T13:15:50.442Z,1.20
2023-02-11T13:18:41.411Z,1.48
2023-02-11T13:21:26.600Z,1.75
2023-02-11T13:24:00.458Z,1.35
2023-02-11T13:26:35.633Z,1.33
2023-02-11T13:29:16.885Z,1.42
2023-02-11T13:31:54.125Z,1.00
2023-02-11T13:34:26.360Z,1.08
2023-02-11T13:36:58.264Z,1.00
2023-02-11T13:39:26.285Z,0.70
2023-02-11T13:42:03.913Z,1.10
2023-02-11T13:44:35.532Z,1.25
2023-02-11T13:47:06.285Z,2.25
2023-02-11T13:49:40.425Z,1.13
2023-02-11T13:52:22.127Z,1.42
2023-02-11T13:54:52.777Z,1.20
2023-02-11T13:57:34.779Z,1.63
2023-02-11T14:00:06.034Z,1.23
2023-02-11T14:02:53.940Z,1.55
2023-02-11T14:05:48.344Z,1.75
2023-02-11T14:08:39.810Z,1.23
2023-02-11T14:11:12.728Z,1.10
2023-02-11T14:14:04.439Z,1.48
2023-02-11T14:16:38.348Z,2.00
2023-02-11T14:19:07.228Z,1.45
2023-02-11T14:21:38.427Z,1.23
2023-02-11T14:24:43.685Z,1.75
2023-02-11T14:27:21.348Z,0.82
2023-02-11T14:30:02.589Z,2.20
2023-02-11T14:32:41.425Z,0.90
2023-02-11T14:35:15.301Z,1.30
2023-02-11T14:37:52.910Z,1.25
2023-02-11T14:40:29.725Z,1.17
2023-02-11T14:43:02.015Z,1.25
2023-02-11T14:45:31.392Z,2.03
2023-02-11T14:48:08.091Z,1.00
2023-02-11T14:50:45.515Z,1.05
2023-02-11T14:53:17.047Z,1.35
2023-02-11T14:55:48.465Z,1.70
2023-02-11T14:58:18.167Z,0.70
2023-02-11T15:00:53.904Z,1.55
2023-02-11T15:03:30.696Z,1.38
2023-02-11T15:06:01.246Z,1.40
2023-02-11T15:08:30.924Z,1.83
2023-02-11T15:10:59.668Z,1.20
2023-02-11T15:13:31.868Z,1.33
2023-02-11T15:16:06.458Z,0.82
2023-02-11T15:18:38.422Z,1.02
2023-02-11T15:21:07.391Z,0.80
2023-02-11T15:23:35.284Z,1.60
2023-02-11T15:26:05.927Z,0.70
2023-02-11T15:28:35.466Z,1.23
2023-02-11T15:31:13.718Z,1.75
2023-02-11T15:33:41.626Z,0.95
2023-02-11T15:36:11.940Z,1.58
2023-02-11T15:38:40.630Z,1.38
2023-02-11T15:41:09.304Z,1.05
2023-02-11T15:43:44.841Z,0.95
2023-02-11T15:46:17.640Z,1.83
2023-02-11T15:48:48.213Z,0.82
2023-02-11T15:51:21.808Z,1.55
2023-02-11T15:53:53.213Z,0.80
2023-02-11T15:56:25.163Z,0.77
2023-02-11T15:58:55.319Z,1.63
2023-02-11T16:01:33.615Z,1.17
2023-02-11T16:04:02.316Z,1.40
2023-02-11T16:06:38.989Z,1.00
2023-02-11T16:09:23.373Z,0.80
2023-02-11T16:11:57.941Z,1.58
2023-02-11T16:14:31.551Z,0.88
2023-02-11T16:17:03.172Z,2.30
2023-02-11T16:19:32.604Z,1.17
2023-02-11T16:22:02.917Z,1.15
2023-02-11T16:24:33.963Z,0.88
2023-02-11T16:27:03.744Z,1.40
2023-02-11T16:29:35.167Z,1.13
2023-02-11T16:32:09.910Z,0.60
2023-02-11T16:34:38.427Z,1.35
2023-02-11T16:37:06.940Z,1.52
2023-02-11T16:39:35.204Z,2.10
2023-02-11T16:42:05.799Z,2.15
2023-02-11T16:44:35.857Z,1.08
2023-02-11T16:47:05.907Z,1.08
2023-02-11T16:49:38.163Z,2.00
2023-02-11T16:52:09.240Z,2.80
2023-02-11T16:54:37.159Z,1.17
2023-02-11T16:57:10.009Z,1.20
2023-02-11T16:59:37.859Z,1.50
2023-02-11T17:02:05.853Z,1.05
2023-02-11T17:04:35.437Z,1.35
2023-02-11T17:07:03.293Z,2.15
2023-02-11T17:09:31.429Z,1.98
2023-02-11T17:12:00.130Z,2.63
2023-02-11T17:14:28.063Z,3.33
2023-02-11T17:16:55.856Z,2.17
2023-02-11T17:19:23.886Z,1.80
2023-02-11T17:21:54.864Z,1.60
2023-02-11T17:24:23.594Z,2.97
2023-02-11T17:26:51.902Z,2.42
2023-02-11T17:29:22.512Z,1.98
2023-02-11T17:31:51.500Z,1.83
2023-02-11T17:34:20.258Z,2.55
2023-02-11T17:36:48.389Z,2.60
2023-02-11T17:39:19.238Z,2.80
2023-02-11T17:41:47.112Z,2.42
2023-02-11T17:44:16.219Z,3.03
2023-02-11T17:46:44.368Z,1.75
2023-02-11T17:49:12.987Z,2.92
2023-02-11T17:51:41.606Z,2.80
2023-02-11T17:54:13.045Z,2.00
2023-02-11T17:56:42.905Z,2.45
2023-02-11T17:59:11.865Z,1.92
2023-02-11T18:01:41.641Z,1.77
2023-02-11T18:04:13.878Z,2.83
2023-02-11T18:06:41.870Z,2.05
2023-02-11T18:09:09.779Z,2.90
2023-02-11T18:11:39.012Z,2.55
2023-02-11T18:14:09.073Z,2.75
2023-02-11T18:16:39.177Z,2.85
2023-02-11T18:19:07.764Z,1.92
2023-02-11T18:21:36.207Z,2.33
2023-02-11T18:24:06.786Z,2.20
2023-02-11T18:26:34.988Z,1.50
2023-02-11T18:29:03.838Z,1.67
2023-02-11T18:31:35.141Z,1.60
2023-02-11T18:34:03.126Z,2.00
2023-02-11T18:36:31.543Z,3.00
2023-02-11T18:39:00.563Z,1.50
2023-02-11T18:41:29.745Z,1.98
2023-02-11T18:44:02.594Z,1.83
2023-02-11T18:46:31.258Z,2.15
2023-02-11T18:49:00.464Z,1.88
2023-02-11T18:51:28.430Z,3.15
2023-02-11T18:53:56.302Z,1.83
2023-02-11T18:56:27.652Z,1.80
2023-02-11T18:58:56.522Z,2.10
2023-02-11T19:01:27.363Z,2.90
2023-02-11T19:03:56.282Z,1.58
2023-02-11T19:06:27.350Z,1.40
2023-02-11T19:08:59.006Z,2.53
2023-02-11T19:11:42.533Z,3.28
2023-02-11T19:14:11.006Z,2.35
2023-02-11T19:16:39.770Z,1.77
2023-02-11T19:19:08.663Z,2.40
2023-02-11T19:21:38.096Z,1.70
2023-02-11T19:24:07.773Z,3.60
2023-02-11T19:26:36.667Z,2.70
2023-02-11T19:29:04.971Z,3.42
2023-02-11T19:31:33.091Z,2.33
2023-02-11T19:34:01.330Z,1.00
2023-02-11T19:36:30.347Z,2.72
2023-02-11T19:39:01.977Z,1.83
2023-02-11T19:41:30.360Z,1.85
2023-02-11T19:43:58.188Z,2.80
2023-02-11T19:46:27.458Z,1.65
2023-02-11T19:48:56.120Z,1.70
2023-02-11T19:51:24.144Z,2.05
2023-02-11T19:53:51.999Z,1.98
2023-02-11T19:56:22.560Z,1.17
2023-02-11T19:58:50.416Z,2.25
2023-02-11T20:01:21.535Z,2.20
2023-02-11T20:03:50.816Z,1.80
2023-02-11T20:06:21.534Z,1.00
2023-02-11T20:08:49.364Z,1.40
2023-02-11T20:11:18.299Z,2.08
2023-02-11T20:13:49.085Z,1.40
2023-02-11T20:16:18.747Z,2.28
2023-02-11T20:18:47.664Z,1.70
2023-02-11T20:21:17.345Z,1.63
2023-02-11T20:23:46.511Z,1.92
2023-02-11T20:26:16.317Z,1.52
2023-02-11T20:28:44.201Z,2.38
2023-02-11T20:31:13.856Z,1.55
2023-02-11T20:33:42.712Z,2.00
2023-02-11T20:36:13.817Z,1.10
2023-02-11T20:38:42.314Z,1.40
2023-02-11T20:41:13.827Z,1.70
2023-02-11T20:43:41.934Z,1.85
2023-02-11T20:46:09.923Z,1.30
2023-02-11T20:48:39.244Z,2.00
2023-02-11T20:51:09.221Z,1.65
2023-02-11T20:53:37.681Z,1.50
2023-02-11T20:56:06.964Z,2.25
2023-02-11T20:58:36.284Z,1.52
2023-02-11T21:01:08.838Z,1.00
2023-02-11T21:03:36.810Z,1.25
2023-02-11T21:06:06.359Z,0.50
2023-02-11T21:08:34.212Z,1.02
2023-02-11T21:11:02.057Z,1.45
2023-02-11T21:13:30.046Z,0.90
2023-02-11T21:15:58.487Z,0.85
2023-02-11T21:18:26.525Z,1.27
2023-02-11T21:20:55.953Z,0.55
2023-02-11T21:23:25.453Z,1.10
2023-02-11T21:25:54.884Z,0.82
2023-02-11T21:28:26.183Z,1.02
2023-02-11T21:30:54.478Z,2.22
2023-02-11T21:33:22.657Z,1.00
2023-02-11T21:35:51.015Z,1.45
2023-02-11T21:38:18.806Z,1.60
2023-02-11T21:40:47.985Z,1.30
2023-02-11T21:43:15.915Z,0.98
2023-02-11T21:45:44.680Z,1.17
2023-02-11T21:48:12.736Z,1.10
2023-02-11T21:50:41.068Z,0.90
2023-02-11T21:53:09.334Z,1.75
2023-02-11T21:55:37.929Z,1.40
2023-02-11T21:58:08.074Z,1.77
2023-02-11T22:00:35.921Z,1.60
2023-02-11T22:03:03.785Z,1.27
2023-02-11T22:05:32.227Z,1.30
2023-02-11T22:08:00.083Z,1.80
2023-02-11T22:10:27.901Z,1.70
2023-02-11T22:12:55.759Z,1.42
2023-02-11T22:15:24.914Z,1.73
2023-02-11T22:17:52.700Z,2.42
2023-02-11T22:20:20.713Z,1.52
2023-02-11T22:22:48.540Z,1.65
2023-02-11T22:25:16.556Z,1.15
2023-02-11T22:27:44.392Z,1.10
2023-02-11T22:30:14.061Z,2.20
2023-02-11T22:32:43.284Z,1.88
2023-02-11T22:35:11.075Z,0.90
2023-02-11T22:37:38.913Z,0.82
2023-02-11T22:40:08.140Z,1.20
2023-02-11T22:42:36.003Z,2.03
2023-02-11T22:45:04.162Z,2.50
2023-02-11T22:47:31.993Z,2.08
2023-02-11T22:50:01.213Z,2.05
2023-02-11T22:52:29.076Z,2.45
2023-02-11T22:54:56.848Z,1.60
2023-02-11T22:57:24.685Z,1.58
2023-02-11T22:59:52.517Z,1.52
2023-02-11T23:02:20.363Z,1.40
2023-02-11T23:04:49.951Z,2.95
2023-02-11T23:07:19.217Z,2.08
2023-02-11T23:09:47.007Z,1.60
2023-02-11T23:12:14.855Z,2.05
2023-02-11T23:14:42.684Z,1.95
2023-02-11T23:17:10.481Z,1.67
2023-02-11T23:19:38.301Z,1.70
2023-02-11T23:22:06.127Z,1.40
2023-02-11T23:24:35.241Z,2.30
2023-02-11T23:27:03.273Z,2.03
2023-02-11T23:29:31.079Z,1.25
2023-02-11T23:31:59.182Z,1.85
2023-02-11T23:34:27.080Z,1.58
2023-02-11T23:36:55.782Z,1.75
2023-02-11T23:39:23.589Z,1.20
2023-02-11T23:41:58.808Z,1.17
2023-02-11T23:44:27.090Z,1.73
2023-02-11T23:46:54.957Z,1.50
2023-02-11T23:49:23.002Z,1.70
2023-02-11T23:51:50.849Z,1.60
2023-02-11T23:54:18.628Z,1.88
2023-02-11T23:56:46.458Z,2.17
2023-02-11T23:59:15.649Z,2.65
